Fremont, CA

6:49 AM PDT on May 23, 2015 (GMT -0700)
Union Landing | | Change Station
CLOSE
Current Station
Personal Weather Station
Location: Union City, CA
Elevation: 10 ft
Nearby Weather Stations

Elev 10 ft 37.60 °N, 122.07 °W | Updated 16 seconds ago

Overcast
Overcast
54.8 °F
Feels Like 54.8 °F
N
8.1
Wind Variable Wind from SW
Gusts 8.1 mph

Today
High -- | Low -- °F
--% Chance of Precip.
Yesterday
High -- | Low -- °F
Precip. -- in
5:52 AM 8:17 PM
Waxing Crescent, 30% visible
Pressure 30.10 in
Visibility 7.0 miles
Clouds Overcast 1200 ft
Dew Point 50 °F
Humidity 84%
Rainfall 0.00 in
Snow Depth Not available.
UV 0.0 out of 12
Pollen 6.50 out of 12
Air Quality Not available.
Flu Activity Sporadic
METAR KHWD 231254Z AUTO 26007KT 7SM OVC012 12/11 A3007 RMK AO2 SLP191 T01220106

More Conditions Fewer Conditions

Pressure 30.10 in
Visibility 7.0 miles
Clouds Overcast 1200 ft
Dew Point 50 °F
Humidity 84%
Rainfall 0.00 in
Snow Depth Not available.
UV 0.0 out of 12
Pollen 6.50 out of 12
Air Quality Not available.
Flu Activity Sporadic
METAR KHWD 231254Z AUTO 26007KT 7SM OVC012 12/11 A3007 RMK AO2 SLP191 T01220106

More Conditions Fewer Conditions

10-Day Weather Forecast

Almanac

Astronomy

May. 23, 2015 Rise Set
Actual Time
Civil Twilight
Nautical Twilight
Astronomical Twilight
Moon
Length of Visible Light
Length of Day
Tomorrow will be .
, % of the Moon is Illuminated

Today's Extremes

State Highs State Lows

Community

WunderPhotos

Upload Photos

1,823,467 photos uploaded!

WunderBlogs® & News

Nearby

Air Quality

  Air Quality AQ Index Pollutant
Not available.

Snow Depth

Station Depth Elevation

Earthquake Activity

City Distance Mag. Time & Date
Minimum magnitude displayed is 2.5.

Coastal Water Temperatures

Place Temperature

Stations

Nearby Weather Stations

Station Location Temp. Windchill Dew Point Humidity Wind Precip. Elev Updated Type